Time;durP1;ratioP1;P1;durP2;ratioP2;P2;SDS_P1;SDS_P2;PMS_P1;PMS_P2;Temp;Humidity;BMP_temperature;BMP_pressure;BME280_temperature;BME280_humidity;BME280_pressure;Samples;Min_cycle;Max_cycle;Signal;HPM_P1;HPM_P2
2023/12/20 00:00:19;;;;;;;0.87;0.87;;;;;;;;;;5114269;28;20426;-70
2023/12/20 00:02:46;;;;;;;0.80;0.80;;;;;;;;;;5114348;28;20426;-70
2023/12/20 00:05:13;;;;;;;1.27;1.27;;;;;;;;;;5113924;28;20966;-71
2023/12/20 00:07:39;;;;;;;1.47;1.27;;;;;;;;;;5114078;28;20408;-70
2023/12/20 00:10:05;;;;;;;0.70;0.70;;;;;;;;;;5113947;28;20566;-71
2023/12/20 00:12:31;;;;;;;1.00;1.00;;;;;;;;;;5114248;28;20434;-70
2023/12/20 00:14:57;;;;;;;1.37;1.37;;;;;;;;;;5114249;28;20503;-70
2023/12/20 00:17:23;;;;;;;1.13;1.13;;;;;;;;;;5114202;28;20407;-71
2023/12/20 00:19:49;;;;;;;1.03;1.03;;;;;;;;;;5113926;28;20429;-70
2023/12/20 00:22:15;;;;;;;1.17;1.03;;;;;;;;;;5113823;28;20422;-71
2023/12/20 00:24:40;;;;;;;0.97;0.97;;;;;;;;;;5113818;28;20410;-71
2023/12/20 00:27:06;;;;;;;0.90;0.90;;;;;;;;;;5113762;28;20419;-71
2023/12/20 00:29:32;;;;;;;2.00;1.23;;;;;;;;;;5113686;28;20455;-70
2023/12/20 00:31:58;;;;;;;1.20;1.20;;;;;;;;;;5113675;28;20420;-70
2023/12/20 00:34:24;;;;;;;1.63;1.03;;;;;;;;;;5113954;28;20926;-70
2023/12/20 00:36:50;;;;;;;1.03;0.90;;;;;;;;;;5113679;28;20825;-70
2023/12/20 00:39:16;;;;;;;1.30;1.30;;;;;;;;;;5113937;28;20819;-71
2023/12/20 00:41:42;;;;;;;2.80;1.17;;;;;;;;;;5113578;28;20420;-71
2023/12/20 00:44:08;;;;;;;1.37;1.37;;;;;;;;;;5114076;28;20426;-70
2023/12/20 00:46:34;;;;;;;2.10;2.00;;;;;;;;;;5112760;28;20420;-70
2023/12/20 00:49:00;;;;;;;0.80;0.80;;;;;;;;;;5113703;28;20488;-70
2023/12/20 00:51:26;;;;;;;1.37;1.37;;;;;;;;;;5113597;28;20560;-71
2023/12/20 00:53:54;;;;;;;1.00;1.00;;;;;;;;;;5113733;28;20404;-70
2023/12/20 00:56:20;;;;;;;1.20;1.20;;;;;;;;;;5113781;28;20416;-71
2023/12/20 00:58:46;;;;;;;1.20;1.20;;;;;;;;;;5113734;28;20408;-70
2023/12/20 01:01:12;;;;;;;1.80;1.13;;;;;;;;;;5112036;28;20424;-71
2023/12/20 01:03:39;;;;;;;12.40;3.23;;;;;;;;;;5113224;28;20499;-70
2023/12/20 01:06:05;;;;;;;1.30;1.30;;;;;;;;;;5113658;28;20416;-71
2023/12/20 01:08:31;;;;;;;1.40;1.40;;;;;;;;;;5113685;28;20415;-70
2023/12/20 01:10:57;;;;;;;1.30;1.20;;;;;;;;;;5113522;28;20471;-70
2023/12/20 01:13:23;;;;;;;1.10;1.10;;;;;;;;;;5113513;28;20890;-70
2023/12/20 01:15:49;;;;;;;1.10;0.87;;;;;;;;;;5113310;28;20842;-70
2023/12/20 01:18:15;;;;;;;1.27;1.10;;;;;;;;;;5113239;28;20408;-70
2023/12/20 01:20:41;;;;;;;1.00;1.00;;;;;;;;;;5113130;28;20506;-70
2023/12/20 01:23:07;;;;;;;0.93;0.93;;;;;;;;;;5113148;28;20415;-70
2023/12/20 01:25:33;;;;;;;1.17;1.17;;;;;;;;;;5113418;28;20412;-71
2023/12/20 01:27:59;;;;;;;1.00;1.00;;;;;;;;;;5113463;28;20906;-70
2023/12/20 01:30:24;;;;;;;1.10;1.10;;;;;;;;;;5113074;28;20482;-70
2023/12/20 01:32:50;;;;;;;1.17;1.17;;;;;;;;;;5113393;28;20439;-70
2023/12/20 01:35:16;;;;;;;0.80;0.80;;;;;;;;;;5112984;28;20442;-71
2023/12/20 01:37:42;;;;;;;1.00;1.00;;;;;;;;;;5113100;28;20415;-70
2023/12/20 01:40:08;;;;;;;0.97;0.87;;;;;;;;;;5113535;28;20415;-70
2023/12/20 01:42:34;;;;;;;0.60;0.60;;;;;;;;;;5113061;28;20412;-71
2023/12/20 01:45:00;;;;;;;0.87;0.87;;;;;;;;;;5113034;28;20420;-70
2023/12/20 01:47:27;;;;;;;0.90;0.90;;;;;;;;;;5112951;28;20419;-70
2023/12/20 01:49:53;;;;;;;0.87;0.87;;;;;;;;;;5112927;28;20997;-70
2023/12/20 01:52:20;;;;;;;0.50;0.50;;;;;;;;;;5113481;28;20457;-71
2023/12/20 01:54:46;;;;;;;0.70;0.70;;;;;;;;;;5113217;28;20419;-71
2023/12/20 01:57:12;;;;;;;0.70;0.70;;;;;;;;;;5113544;28;20412;-70
2023/12/20 01:59:41;;;;;;;0.80;0.80;;;;;;;;;;5116650;28;20452;-70
2023/12/20 02:02:08;;;;;;;0.60;0.60;;;;;;;;;;5116856;28;20404;-70
2023/12/20 02:04:34;;;;;;;0.73;0.73;;;;;;;;;;5116453;28;20464;-71
2023/12/20 02:07:00;;;;;;;0.60;0.60;;;;;;;;;;5116580;28;20442;-71
2023/12/20 02:09:26;;;;;;;1.07;0.70;;;;;;;;;;5116619;28;20455;-70
2023/12/20 02:11:53;;;;;;;0.60;0.60;;;;;;;;;;5116612;28;20424;-70
2023/12/20 02:14:19;;;;;;;0.60;0.60;;;;;;;;;;5116566;28;20435;-70
2023/12/20 02:16:45;;;;;;;0.90;0.90;;;;;;;;;;5115332;28;20763;-71
2023/12/20 02:19:17;;;;;;;0.80;0.80;;;;;;;;;;5116095;28;20406;-70
2023/12/20 02:21:43;;;;;;;0.60;0.60;;;;;;;;;;5116486;28;20485;-70
2023/12/20 02:24:08;;;;;;;0.67;0.67;;;;;;;;;;5116515;28;20914;-70
2023/12/20 02:26:35;;;;;;;0.93;0.70;;;;;;;;;;5116060;28;20894;-70
2023/12/20 02:29:01;;;;;;;0.63;0.63;;;;;;;;;;5115884;28;20981;-70
2023/12/20 02:31:27;;;;;;;2.40;2.20;;;;;;;;;;5116170;28;20439;-71
2023/12/20 02:33:53;;;;;;;3.87;3.57;;;;;;;;;;5115881;28;20899;-70
2023/12/20 02:36:19;;;;;;;3.63;3.33;;;;;;;;;;5115924;28;20843;-70
2023/12/20 02:38:45;;;;;;;3.00;2.83;;;;;;;;;;5116217;28;20899;-70
2023/12/20 02:41:11;;;;;;;7.10;5.20;;;;;;;;;;5114442;28;20420;-71
2023/12/20 02:43:36;;;;;;;0.90;0.90;;;;;;;;;;5115735;28;20404;-70
2023/12/20 02:46:02;;;;;;;0.60;0.60;;;;;;;;;;5116429;28;20476;-71
2023/12/20 02:48:28;;;;;;;0.70;0.70;;;;;;;;;;5116190;28;20415;-71
2023/12/20 02:50:55;;;;;;;0.57;0.57;;;;;;;;;;5115770;28;20463;-70
2023/12/20 02:53:21;;;;;;;0.80;0.80;;;;;;;;;;5115805;28;20450;-70
2023/12/20 02:55:47;;;;;;;0.80;0.80;;;;;;;;;;5115858;28;20786;-71
2023/12/20 02:58:13;;;;;;;0.77;0.77;;;;;;;;;;5115520;28;20842;-71
2023/12/20 03:00:39;;;;;;;0.47;0.47;;;;;;;;;;5115661;28;20796;-70
2023/12/20 03:03:05;;;;;;;0.67;0.67;;;;;;;;;;5115516;28;20416;-71
2023/12/20 03:05:31;;;;;;;0.70;0.70;;;;;;;;;;5115169;28;20464;-71
2023/12/20 03:07:56;;;;;;;0.60;0.60;;;;;;;;;;5113998;28;20427;-71
2023/12/20 03:10:23;;;;;;;0.70;0.70;;;;;;;;;;5114449;28;20481;-71
2023/12/20 03:12:49;;;;;;;0.70;0.70;;;;;;;;;;5115457;28;20412;-71
2023/12/20 03:15:15;;;;;;;0.50;0.50;;;;;;;;;;5115360;28;20415;-71
2023/12/20 03:17:41;;;;;;;0.80;0.80;;;;;;;;;;5115133;28;20415;-71
2023/12/20 03:20:07;;;;;;;0.50;0.50;;;;;;;;;;5115250;28;20412;-71
2023/12/20 03:22:33;;;;;;;0.50;0.50;;;;;;;;;;5115235;28;20416;-71
2023/12/20 03:24:59;;;;;;;0.50;0.50;;;;;;;;;;5114875;28;20431;-71
2023/12/20 03:27:25;;;;;;;0.40;0.40;;;;;;;;;;5114827;28;20423;-71
2023/12/20 03:29:51;;;;;;;0.70;0.70;;;;;;;;;;5114693;28;20528;-71
2023/12/20 03:32:18;;;;;;;0.53;0.53;;;;;;;;;;5113519;28;20416;-70
2023/12/20 03:34:44;;;;;;;0.40;0.40;;;;;;;;;;5114643;28;20443;-71
2023/12/20 03:37:10;;;;;;;0.40;0.40;;;;;;;;;;5114687;28;20427;-71
2023/12/20 03:39:36;;;;;;;0.50;0.50;;;;;;;;;;5113713;28;20432;-71
2023/12/20 03:42:02;;;;;;;0.47;0.47;;;;;;;;;;5114784;28;20427;-70
2023/12/20 03:44:28;;;;;;;0.43;0.43;;;;;;;;;;5114471;28;20423;-70
2023/12/20 03:46:54;;;;;;;0.40;0.40;;;;;;;;;;5115565;28;20536;-70
2023/12/20 03:49:20;;;;;;;0.50;0.50;;;;;;;;;;5115383;28;20791;-70
2023/12/20 03:51:46;;;;;;;0.47;0.47;;;;;;;;;;5115003;28;20731;-70
2023/12/20 03:54:12;;;;;;;0.77;0.47;;;;;;;;;;5113086;28;20767;-71
2023/12/20 03:56:37;;;;;;;0.50;0.50;;;;;;;;;;5114886;28;20787;-71
2023/12/20 03:59:03;;;;;;;0.60;0.60;;;;;;;;;;5114493;28;20416;-71
2023/12/20 04:01:29;;;;;;;0.40;0.40;;;;;;;;;;5114244;28;20450;-70
2023/12/20 04:03:55;;;;;;;0.50;0.50;;;;;;;;;;5114226;28;20545;-71
2023/12/20 04:06:21;;;;;;;0.40;0.40;;;;;;;;;;5114136;28;20435;-71
2023/12/20 04:08:47;;;;;;;0.43;0.43;;;;;;;;;;5130044;27;20866;-71
2023/12/20 04:11:13;;;;;;;0.43;0.43;;;;;;;;;;5114012;28;20420;-71
2023/12/20 04:13:39;;;;;;;0.47;0.47;;;;;;;;;;5114093;28;20490;-70
2023/12/20 04:16:05;;;;;;;0.30;0.30;;;;;;;;;;5114537;28;20768;-71
2023/12/20 04:18:31;;;;;;;0.50;0.50;;;;;;;;;;5114367;28;20404;-70
2023/12/20 04:20:57;;;;;;;0.40;0.40;;;;;;;;;;5114059;28;20503;-70
2023/12/20 04:23:23;;;;;;;0.30;0.30;;;;;;;;;;5114134;28;20499;-70
2023/12/20 04:25:49;;;;;;;0.40;0.40;;;;;;;;;;5113576;28;20415;-71
2023/12/20 04:28:15;;;;;;;0.40;0.40;;;;;;;;;;5114086;28;20437;-71
2023/12/20 04:30:42;;;;;;;1.80;0.50;;;;;;;;;;5113711;28;20512;-71
2023/12/20 04:33:08;;;;;;;0.40;0.40;;;;;;;;;;5113936;28;20790;-70
2023/12/20 04:35:34;;;;;;;0.47;0.47;;;;;;;;;;5113887;28;20905;-70
2023/12/20 04:37:59;;;;;;;0.53;0.53;;;;;;;;;;5113644;28;20940;-70
2023/12/20 04:40:25;;;;;;;0.57;0.40;;;;;;;;;;5113682;28;20467;-71
2023/12/20 04:42:51;;;;;;;0.37;0.37;;;;;;;;;;5113574;28;20408;-71
2023/12/20 04:45:19;;;;;;;2.93;0.60;;;;;;;;;;5113863;28;20494;-71
2023/12/20 04:47:46;;;;;;;0.50;0.50;;;;;;;;;;5113638;28;20763;-71
2023/12/20 04:50:13;;;;;;;2.40;0.40;;;;;;;;;;5113421;28;20466;-70
2023/12/20 04:52:39;;;;;;;0.77;0.77;;;;;;;;;;5114263;28;20440;-71
2023/12/20 04:55:05;;;;;;;0.37;0.37;;;;;;;;;;5112964;28;20423;-71
2023/12/20 04:57:31;;;;;;;0.30;0.30;;;;;;;;;;5113512;28;20415;-70
2023/12/20 04:59:57;;;;;;;0.30;0.30;;;;;;;;;;5113410;28;20953;-71
2023/12/20 05:02:23;;;;;;;0.60;0.60;;;;;;;;;;5113652;28;20419;-70
2023/12/20 05:04:49;;;;;;;0.50;0.50;;;;;;;;;;5113255;28;21012;-71
2023/12/20 05:07:15;;;;;;;0.40;0.40;;;;;;;;;;5113619;28;20442;-71
2023/12/20 05:09:41;;;;;;;0.93;0.37;;;;;;;;;;5113232;28;20471;-70
2023/12/20 05:12:07;;;;;;;1.70;0.50;;;;;;;;;;5113605;28;20469;-71
2023/12/20 05:14:33;;;;;;;0.50;0.50;;;;;;;;;;5113299;28;20423;-71
2023/12/20 05:16:59;;;;;;;0.50;0.50;;;;;;;;;;5113577;28;20419;-70
2023/12/20 05:19:26;;;;;;;0.50;0.50;;;;;;;;;;5113172;28;20416;-70
2023/12/20 05:21:52;;;;;;;0.60;0.60;;;;;;;;;;5113441;28;20519;-71
2023/12/20 05:24:18;;;;;;;0.50;0.50;;;;;;;;;;5113126;28;20525;-71
2023/12/20 05:26:44;;;;;;;0.50;0.50;;;;;;;;;;5113511;28;20420;-71
2023/12/20 05:29:10;;;;;;;7.07;0.50;;;;;;;;;;5113084;28;20470;-71
2023/12/20 05:31:36;;;;;;;0.40;0.40;;;;;;;;;;5113091;28;20424;-70
2023/12/20 05:34:02;;;;;;;0.40;0.40;;;;;;;;;;5116764;28;20400;-71
2023/12/20 05:36:28;;;;;;;0.40;0.40;;;;;;;;;;5117001;28;20435;-71
2023/12/20 05:38:54;;;;;;;1.60;0.67;;;;;;;;;;5117279;28;20418;-71
2023/12/20 05:41:21;;;;;;;0.50;0.50;;;;;;;;;;5117416;28;20506;-71
2023/12/20 05:43:47;;;;;;;0.40;0.40;;;;;;;;;;5117225;28;20411;-70
2023/12/20 05:46:13;;;;;;;0.50;0.50;;;;;;;;;;5116914;28;20419;-71
2023/12/20 05:48:39;;;;;;;0.50;0.50;;;;;;;;;;5117053;28;20407;-71
2023/12/20 05:51:05;;;;;;;0.47;0.47;;;;;;;;;;5116879;28;20471;-70
2023/12/20 05:53:31;;;;;;;0.80;0.80;;;;;;;;;;5117086;28;20414;-71
2023/12/20 05:55:57;;;;;;;1.00;0.77;;;;;;;;;;5116664;28;20898;-71
2023/12/20 05:58:23;;;;;;;0.80;0.50;;;;;;;;;;5116597;28;20979;-71
2023/12/20 06:00:49;;;;;;;0.50;0.50;;;;;;;;;;5116669;28;20882;-70
2023/12/20 06:03:15;;;;;;;0.60;0.60;;;;;;;;;;5116873;28;20909;-71
2023/12/20 06:05:41;;;;;;;0.50;0.50;;;;;;;;;;5116707;28;20427;-71
2023/12/20 06:08:07;;;;;;;0.83;0.83;;;;;;;;;;5116391;28;20416;-71
2023/12/20 06:10:33;;;;;;;0.67;0.40;;;;;;;;;;5116555;28;20558;-71
2023/12/20 06:13:00;;;;;;;0.40;0.40;;;;;;;;;;5116294;28;20408;-71
2023/12/20 06:15:26;;;;;;;0.47;0.47;;;;;;;;;;5116298;28;21003;-71
2023/12/20 06:17:52;;;;;;;0.70;0.70;;;;;;;;;;5116478;28;20432;-69
2023/12/20 06:20:18;;;;;;;1.23;0.50;;;;;;;;;;5116256;28;20965;-72
2023/12/20 06:22:44;;;;;;;0.40;0.40;;;;;;;;;;5116150;28;20440;-71
2023/12/20 06:25:10;;;;;;;0.30;0.30;;;;;;;;;;5116374;28;20422;-72
2023/12/20 06:27:36;;;;;;;0.50;0.50;;;;;;;;;;5116278;28;20416;-72
2023/12/20 06:30:02;;;;;;;0.77;0.77;;;;;;;;;;5116005;28;20471;-72
2023/12/20 06:32:29;;;;;;;0.40;0.40;;;;;;;;;;5115548;28;20874;-72
2023/12/20 06:34:55;;;;;;;0.50;0.50;;;;;;;;;;5115843;28;20424;-72
2023/12/20 06:37:21;;;;;;;0.90;0.90;;;;;;;;;;5115339;28;20457;-72
2023/12/20 06:39:47;;;;;;;1.43;0.83;;;;;;;;;;5116302;28;20412;-72
2023/12/20 06:42:13;;;;;;;0.80;0.80;;;;;;;;;;5115693;28;20404;-72
2023/12/20 06:44:39;;;;;;;1.00;1.00;;;;;;;;;;5116232;28;20747;-72
2023/12/20 06:47:05;;;;;;;1.27;1.27;;;;;;;;;;5115779;28;20419;-72
2023/12/20 06:49:31;;;;;;;0.97;0.60;;;;;;;;;;5114250;28;20459;-72
2023/12/20 06:51:57;;;;;;;1.00;1.00;;;;;;;;;;5115619;28;20480;-72
2023/12/20 06:54:23;;;;;;;1.50;1.47;;;;;;;;;;5115839;28;20454;-72
2023/12/20 06:56:49;;;;;;;0.87;0.87;;;;;;;;;;5115749;28;20834;-72
2023/12/20 06:59:15;;;;;;;0.50;0.50;;;;;;;;;;5115458;28;20416;-72
2023/12/20 07:01:42;;;;;;;0.60;0.60;;;;;;;;;;5115792;28;20453;-72
2023/12/20 07:04:07;;;;;;;0.70;0.70;;;;;;;;;;5115369;28;20470;-71
2023/12/20 07:06:33;;;;;;;1.10;1.10;;;;;;;;;;5115256;28;20420;-72
2023/12/20 07:08:59;;;;;;;0.90;0.53;;;;;;;;;;5115496;28;20416;-71
2023/12/20 07:11:26;;;;;;;0.50;0.50;;;;;;;;;;5115172;28;20459;-72
2023/12/20 07:13:52;;;;;;;2.73;0.70;;;;;;;;;;5115470;28;20412;-76
2023/12/20 07:16:18;;;;;;;1.10;1.10;;;;;;;;;;5115411;28;20424;-72
2023/12/20 07:18:44;;;;;;;4.07;2.43;;;;;;;;;;5115068;28;20419;-72
2023/12/20 07:21:10;;;;;;;2.10;2.10;;;;;;;;;;5115239;28;20899;-74
2023/12/20 07:23:36;;;;;;;1.00;1.00;;;;;;;;;;5114872;28;20515;-72
2023/12/20 07:26:02;;;;;;;6.53;1.03;;;;;;;;;;5115211;28;20411;-72
2023/12/20 07:28:28;;;;;;;1.90;1.90;;;;;;;;;;5114959;28;20419;-72
2023/12/20 07:30:53;;;;;;;3.10;2.80;;;;;;;;;;5115027;28;20467;-72
2023/12/20 07:33:19;;;;;;;2.47;2.27;;;;;;;;;;5114664;28;20408;-72
2023/12/20 07:35:45;;;;;;;1.20;1.20;;;;;;;;;;5115032;28;20529;-72
2023/12/20 07:38:12;;;;;;;4.00;0.87;;;;;;;;;;5114997;28;20414;-72
2023/12/20 07:40:39;;;;;;;1.70;0.67;;;;;;;;;;5114673;28;20891;-72
2023/12/20 07:43:05;;;;;;;2.93;0.90;;;;;;;;;;5114409;28;20434;-72
2023/12/20 07:45:31;;;;;;;2.03;1.73;;;;;;;;;;5114493;28;20424;-72
2023/12/20 07:47:57;;;;;;;2.50;2.50;;;;;;;;;;5114583;28;20419;-72
2023/12/20 07:50:22;;;;;;;2.93;1.90;;;;;;;;;;5114473;28;20471;-72
2023/12/20 07:52:48;;;;;;;1.90;1.80;;;;;;;;;;5114198;28;20411;-72
2023/12/20 07:55:14;;;;;;;1.63;1.53;;;;;;;;;;5114123;28;20415;-72
2023/12/20 07:57:40;;;;;;;1.07;1.07;;;;;;;;;;5114627;28;20439;-72
2023/12/20 08:00:07;;;;;;;0.87;0.87;;;;;;;;;;5114151;28;20902;-72
2023/12/20 08:02:32;;;;;;;1.80;1.37;;;;;;;;;;5112823;28;20511;-72
2023/12/20 08:04:58;;;;;;;0.80;0.80;;;;;;;;;;5114037;28;20575;-72
2023/12/20 08:07:24;;;;;;;0.80;0.80;;;;;;;;;;5114447;28;20420;-72
2023/12/20 08:09:51;;;;;;;0.80;0.80;;;;;;;;;;5114014;28;20482;-72
2023/12/20 08:12:17;;;;;;;1.07;1.07;;;;;;;;;;5114154;28;20416;-72
2023/12/20 08:14:43;;;;;;;1.60;1.60;;;;;;;;;;5114467;28;20420;-72
2023/12/20 08:17:09;;;;;;;1.70;1.60;;;;;;;;;;5113640;28;20419;-72
2023/12/20 08:19:35;;;;;;;1.10;1.10;;;;;;;;;;5114119;28;20412;-72
2023/12/20 08:22:01;;;;;;;1.30;1.00;;;;;;;;;;5113907;28;20502;-72
2023/12/20 08:24:27;;;;;;;1.00;1.00;;;;;;;;;;5113856;28;20420;-72
2023/12/20 08:26:53;;;;;;;1.50;1.40;;;;;;;;;;5112613;28;20430;-72
2023/12/20 08:29:19;;;;;;;3.20;1.50;;;;;;;;;;5113973;28;20463;-72
2023/12/20 08:31:46;;;;;;;1.20;1.20;;;;;;;;;;5113756;28;20419;-72
2023/12/20 08:34:14;;;;;;;1.13;1.10;;;;;;;;;;5113976;28;20426;-72
2023/12/20 08:36:40;;;;;;;1.37;1.30;;;;;;;;;;5114007;28;20420;-72
2023/12/20 08:39:08;;;;;;;0.90;0.90;;;;;;;;;;5113683;28;20480;-72
2023/12/20 08:41:34;;;;;;;0.80;0.80;;;;;;;;;;5113997;28;20451;-72
2023/12/20 08:44:00;;;;;;;1.30;1.30;;;;;;;;;;5113257;28;20452;-72
2023/12/20 08:46:25;;;;;;;5.50;2.30;;;;;;;;;;5113490;28;20430;-72
2023/12/20 08:48:51;;;;;;;1.70;1.60;;;;;;;;;;5113765;28;20511;-72
2023/12/20 08:51:17;;;;;;;1.57;1.57;;;;;;;;;;5113548;28;20474;-72
2023/12/20 08:53:45;;;;;;;1.20;1.10;;;;;;;;;;5113476;28;20415;-72
2023/12/20 08:56:11;;;;;;;1.17;1.17;;;;;;;;;;5113511;28;20467;-72
2023/12/20 08:58:37;;;;;;;0.77;0.77;;;;;;;;;;5113664;28;20447;-72
2023/12/20 09:01:03;;;;;;;1.90;1.30;;;;;;;;;;5113278;28;20454;-72
2023/12/20 09:03:28;;;;;;;0.67;0.67;;;;;;;;;;5113145;28;20415;-72
2023/12/20 09:05:54;;;;;;;3.05;1.60;;;;;;;;;;5113110;28;20504;-69
2023/12/20 09:08:21;;;;;;;1.83;1.73;;;;;;;;;;5115678;28;20180;-69
2023/12/20 09:10:47;;;;;;;2.10;1.20;;;;;;;;;;5117801;27;20620;-72
2023/12/20 09:13:13;;;;;;;2.73;1.43;;;;;;;;;;5117392;28;20876;-72
2023/12/20 09:15:39;;;;;;;2.23;0.60;;;;;;;;;;5117498;28;20415;-72
2023/12/20 09:18:05;;;;;;;1.50;1.50;;;;;;;;;;5116100;28;20426;-72
2023/12/20 09:20:31;;;;;;;1.13;1.13;;;;;;;;;;5117914;28;20887;-72
2023/12/20 09:22:57;;;;;;;1.13;1.13;;;;;;;;;;5133563;27;20820;-72
2023/12/20 09:25:23;;;;;;;1.73;0.90;;;;;;;;;;5117644;27;20424;-72
2023/12/20 09:27:49;;;;;;;0.70;0.70;;;;;;;;;;5117338;28;20502;-72
2023/12/20 09:33:19;;;;;;;0.73;0.73;;;;;;;;;;5117203;28;20766;-72
2023/12/20 09:35:45;;;;;;;2.50;0.77;;;;;;;;;;5117359;28;20399;-72
2023/12/20 09:38:12;;;;;;;2.47;1.20;;;;;;;;;;5117317;28;20434;-72
2023/12/20 09:40:39;;;;;;;1.23;0.90;;;;;;;;;;5117359;28;20399;-72
2023/12/20 09:43:09;;;;;;;0.70;0.70;;;;;;;;;;5117199;28;20408;-72
2023/12/20 09:45:35;;;;;;;1.30;1.30;;;;;;;;;;5117500;28;20408;-72
2023/12/20 09:48:04;;;;;;;2.03;0.63;;;;;;;;;;5117129;28;20418;-72
2023/12/20 09:50:32;;;;;;;1.50;0.70;;;;;;;;;;5117018;28;20819;-72
2023/12/20 09:52:59;;;;;;;2.20;0.60;;;;;;;;;;5117106;27;20597;-72
2023/12/20 09:55:25;;;;;;;0.60;0.60;;;;;;;;;;5117053;28;20810;-72
2023/12/20 09:57:51;;;;;;;0.70;0.70;;;;;;;;;;5116942;28;20412;-72
2023/12/20 10:00:18;;;;;;;2.10;1.07;;;;;;;;;;5116612;28;20412;-72
2023/12/20 10:02:46;;;;;;;8.53;5.30;;;;;;;;;;5116757;28;20404;-72
2023/12/20 10:05:16;;;;;;;1.60;0.93;;;;;;;;;;5115341;28;20459;-72
2023/12/20 10:07:42;;;;;;;0.60;0.60;;;;;;;;;;5115372;28;20403;-72
2023/12/20 10:10:08;;;;;;;3.30;1.90;;;;;;;;;;5115381;28;20470;-72
2023/12/20 10:12:34;;;;;;;0.93;0.50;;;;;;;;;;5115268;28;20886;-72
2023/12/20 10:15:00;;;;;;;0.97;0.73;;;;;;;;;;5115670;28;20437;-72
2023/12/20 10:17:29;;;;;;;1.63;1.00;;;;;;;;;;5113763;28;20464;-72
2023/12/20 10:19:55;;;;;;;0.70;0.70;;;;;;;;;;5115011;28;20424;-72
2023/12/20 10:22:22;;;;;;;0.73;0.73;;;;;;;;;;5114984;28;20443;-72
2023/12/20 10:24:48;;;;;;;1.43;0.80;;;;;;;;;;5113719;28;20612;-72
2023/12/20 10:27:14;;;;;;;3.90;0.80;;;;;;;;;;5114905;28;20424;-72
2023/12/20 10:29:40;;;;;;;0.70;0.70;;;;;;;;;;5113596;28;20490;-72
2023/12/20 10:32:22;;;;;;;1.53;0.87;;;;;;;;;;5115450;28;20442;-72
2023/12/20 10:34:48;;;;;;;0.90;0.90;;;;;;;;;;5115166;28;20391;-72
2023/12/20 10:37:14;;;;;;;0.60;0.60;;;;;;;;;;5113551;28;20782;-72
2023/12/20 10:39:41;;;;;;;2.13;0.60;;;;;;;;;;5115045;28;20816;-72
2023/12/20 10:42:07;;;;;;;0.50;0.50;;;;;;;;;;5114680;28;20471;-72
2023/12/20 10:44:33;;;;;;;0.87;0.87;;;;;;;;;;5114753;28;20502;-72
2023/12/20 10:46:59;;;;;;;3.10;0.70;;;;;;;;;;5114652;28;20424;-72
2023/12/20 10:49:26;;;;;;;1.87;0.70;;;;;;;;;;5114494;28;20845;-72
2023/12/20 10:51:55;;;;;;;0.50;0.50;;;;;;;;;;5114780;28;20432;-72
2023/12/20 10:54:21;;;;;;;1.03;0.70;;;;;;;;;;5114587;28;20468;-72
2023/12/20 10:56:48;;;;;;;0.40;0.40;;;;;;;;;;5114541;28;20424;-72
2023/12/20 10:59:17;;;;;;;0.53;0.53;;;;;;;;;;5114367;28;20415;-72
2023/12/20 11:01:44;;;;;;;0.57;0.53;;;;;;;;;;5114398;28;20506;-72
2023/12/20 11:04:10;;;;;;;0.70;0.50;;;;;;;;;;5077547;28;1053852;-72
2023/12/20 11:06:43;;;;;;;2.00;0.70;;;;;;;;;;5115651;28;20276;-72
2023/12/20 11:09:20;;;;;;;2.67;0.57;;;;;;;;;;5115784;28;20841;-72
2023/12/20 11:11:54;;;;;;;0.53;0.53;;;;;;;;;;5115655;28;20407;-72
2023/12/20 11:14:26;;;;;;;4.63;1.00;;;;;;;;;;5115414;28;20403;-72
2023/12/20 11:17:05;;;;;;;2.63;0.60;;;;;;;;;;5115460;28;20420;-72
2023/12/20 11:19:31;;;;;;;2.17;0.80;;;;;;;;;;5115313;28;20400;-72
2023/12/20 11:21:57;;;;;;;1.67;0.67;;;;;;;;;;5113791;28;20423;-73
2023/12/20 11:24:24;;;;;;;2.50;0.80;;;;;;;;;;5115046;28;20481;-72
2023/12/20 11:26:51;;;;;;;5.53;1.00;;;;;;;;;;5115240;28;20465;-72
2023/12/20 11:29:30;;;;;;;3.07;1.60;;;;;;;;;;5114955;28;20400;-72
2023/12/20 11:31:56;;;;;;;0.90;0.60;;;;;;;;;;5114366;28;20415;-72
2023/12/20 11:34:22;;;;;;;3.70;1.27;;;;;;;;;;5115170;28;20399;-72
2023/12/20 11:36:48;;;;;;;0.90;0.80;;;;;;;;;;5115118;28;20466;-72
2023/12/20 11:39:21;;;;;;;0.70;0.70;;;;;;;;;;5114960;28;20760;-72
2023/12/20 11:41:49;;;;;;;1.60;0.70;;;;;;;;;;5115280;28;20903;-72
2023/12/20 11:44:17;;;;;;;0.70;0.70;;;;;;;;;;5114597;28;20399;-72
2023/12/20 11:46:44;;;;;;;0.97;0.50;;;;;;;;;;5115155;28;20886;-72
2023/12/20 11:49:10;;;;;;;0.70;0.70;;;;;;;;;;5114475;28;20914;-72
2023/12/20 11:51:41;;;;;;;1.43;1.00;;;;;;;;;;5113134;28;20462;-72
2023/12/20 11:54:07;;;;;;;2.33;2.03;;;;;;;;;;5114612;28;20890;-72
2023/12/20 11:56:33;;;;;;;33.63;22.93;;;;;;;;;;5114463;28;20420;-72
2023/12/20 11:58:59;;;;;;;4.57;4.20;;;;;;;;;;5114334;28;20468;-72
2023/12/20 12:01:25;;;;;;;2.40;0.70;;;;;;;;;;5114769;28;20420;-72
2023/12/20 12:04:03;;;;;;;24.10;10.10;;;;;;;;;;5114183;28;20466;-72
2023/12/20 12:06:28;;;;;;;0.93;0.93;;;;;;;;;;5114315;28;20403;-72
2023/12/20 12:08:55;;;;;;;3.20;0.90;;;;;;;;;;5114234;28;20427;-72
2023/12/20 12:11:21;;;;;;;0.73;0.70;;;;;;;;;;5113983;28;20511;-72
2023/12/20 12:13:47;;;;;;;5.70;3.60;;;;;;;;;;5114053;28;20415;-72
2023/12/20 12:16:17;;;;;;;2.20;0.63;;;;;;;;;;5114057;28;20784;-72
2023/12/20 12:18:43;;;;;;;0.93;0.67;;;;;;;;;;5113832;28;20488;-72
2023/12/20 12:21:09;;;;;;;9.87;6.40;;;;;;;;;;5114285;28;20771;-72
2023/12/20 12:23:35;;;;;;;4.13;1.20;;;;;;;;;;5113811;28;20469;-72
2023/12/20 12:26:04;;;;;;;3.03;1.20;;;;;;;;;;5113617;28;20411;-72
2023/12/20 12:28:32;;;;;;;0.90;0.90;;;;;;;;;;5114331;28;20907;-72
2023/12/20 12:30:58;;;;;;;1.93;1.83;;;;;;;;;;5114075;28;20471;-71
2023/12/20 12:33:26;;;;;;;1.30;0.80;;;;;;;;;;5113699;28;20495;-72
2023/12/20 12:35:52;;;;;;;7.70;4.13;;;;;;;;;;5113787;28;20416;-72
2023/12/20 12:38:21;;;;;;;2.10;1.10;;;;;;;;;;5113700;28;20503;-72
2023/12/20 12:40:47;;;;;;;3.07;1.60;;;;;;;;;;5113971;28;20416;-72
2023/12/20 12:43:13;;;;;;;1.10;1.10;;;;;;;;;;5113754;28;20485;-71
2023/12/20 12:45:39;;;;;;;4.77;2.67;;;;;;;;;;5113781;28;20431;-72
2023/12/20 12:48:05;;;;;;;6.43;3.77;;;;;;;;;;5113808;28;20517;-72
2023/12/20 12:50:31;;;;;;;8.03;1.20;;;;;;;;;;5113551;28;20502;-71
2023/12/20 12:52:57;;;;;;;4.60;1.93;;;;;;;;;;5113743;28;20941;-71
2023/12/20 12:55:23;;;;;;;3.33;0.80;;;;;;;;;;5113757;28;20451;-72
2023/12/20 12:57:49;;;;;;;2.10;1.00;;;;;;;;;;5113495;28;20415;-71
2023/12/20 13:00:15;;;;;;;7.77;2.77;;;;;;;;;;5112982;28;20892;-72
2023/12/20 13:02:41;;;;;;;1.27;1.00;;;;;;;;;;5113688;28;20474;-72
2023/12/20 13:05:08;;;;;;;1.73;0.90;;;;;;;;;;5113181;28;20463;-72
2023/12/20 13:07:34;;;;;;;1.33;0.60;;;;;;;;;;5113579;28;20418;-71
2023/12/20 13:10:00;;;;;;;2.10;1.10;;;;;;;;;;5113259;28;20481;-72
2023/12/20 13:12:26;;;;;;;2.57;1.30;;;;;;;;;;5113618;28;20420;-72
2023/12/20 13:14:53;;;;;;;0.80;0.80;;;;;;;;;;5113609;28;20454;-72
2023/12/20 13:17:20;;;;;;;2.00;1.00;;;;;;;;;;5113547;28;20424;-71
2023/12/20 13:19:46;;;;;;;3.60;1.00;;;;;;;;;;5113580;28;20423;-72
2023/12/20 13:22:12;;;;;;;1.13;1.00;;;;;;;;;;5113524;28;20430;-72
2023/12/20 13:24:38;;;;;;;1.73;0.93;;;;;;;;;;5113228;28;20803;-72
2023/12/20 13:27:04;;;;;;;2.87;1.27;;;;;;;;;;5113302;28;20419;-71
2023/12/20 13:29:30;;;;;;;1.63;1.50;;;;;;;;;;5113165;28;20463;-72
2023/12/20 13:31:57;;;;;;;4.43;0.70;;;;;;;;;;5113341;28;20468;-72
2023/12/20 13:34:23;;;;;;;3.80;1.10;;;;;;;;;;5113418;28;20503;-72
2023/12/20 13:36:50;;;;;;;3.17;1.40;;;;;;;;;;5113344;28;20462;-72
2023/12/20 13:39:16;;;;;;;2.13;0.90;;;;;;;;;;5113383;28;20422;-72
2023/12/20 13:41:42;;;;;;;1.73;1.03;;;;;;;;;;5113398;28;20419;-72
2023/12/20 13:44:08;;;;;;;3.80;0.97;;;;;;;;;;5113036;28;20412;-72
2023/12/20 13:46:34;;;;;;;4.80;0.83;;;;;;;;;;5112990;28;20423;-71
2023/12/20 13:49:01;;;;;;;0.90;0.70;;;;;;;;;;5113194;28;20744;-71
2023/12/20 13:51:27;;;;;;;2.50;0.70;;;;;;;;;;5113226;28;20558;-72
2023/12/20 13:53:53;;;;;;;2.43;0.80;;;;;;;;;;5114521;28;20415;-71
2023/12/20 13:56:20;;;;;;;1.20;0.93;;;;;;;;;;5117017;28;20423;-72
2023/12/20 13:58:46;;;;;;;3.07;0.97;;;;;;;;;;5117012;28;20416;-71
2023/12/20 14:01:12;;;;;;;1.77;1.20;;;;;;;;;;5116575;28;21033;-72
2023/12/20 14:03:38;;;;;;;9.60;5.60;;;;;;;;;;5116524;28;20459;-71
2023/12/20 14:06:05;;;;;;;4.47;4.03;;;;;;;;;;5115340;28;20434;-71
2023/12/20 14:08:31;;;;;;;3.10;1.47;;;;;;;;;;5117098;28;20458;-71
2023/12/20 14:10:56;;;;;;;4.57;1.30;;;;;;;;;;5114998;28;20482;-72
2023/12/20 14:13:22;;;;;;;7.73;1.00;;;;;;;;;;5116351;28;20416;-71
2023/12/20 14:15:49;;;;;;;19.13;9.83;;;;;;;;;;5116318;28;20411;-72
2023/12/20 14:18:15;;;;;;;4.53;3.83;;;;;;;;;;5116199;28;20411;-72
2023/12/20 14:20:42;;;;;;;25.20;6.83;;;;;;;;;;5117216;28;20415;-72
2023/12/20 14:23:09;;;;;;;22.00;9.50;;;;;;;;;;5116460;28;20411;-74
2023/12/20 14:25:38;;;;;;;17.27;7.20;;;;;;;;;;5116148;28;20415;-72
2023/12/20 14:28:05;;;;;;;28.43;8.60;;;;;;;;;;5115860;28;20421;-72
2023/12/20 14:30:32;;;;;;;50.47;21.03;;;;;;;;;;5116197;28;20475;-71
2023/12/20 14:32:58;;;;;;;11.77;7.17;;;;;;;;;;5116249;28;20955;-71
2023/12/20 14:35:24;;;;;;;25.90;10.10;;;;;;;;;;5115669;28;20416;-71
2023/12/20 14:37:50;;;;;;;83.23;28.63;;;;;;;;;;5115923;28;20408;-71
2023/12/20 14:40:16;;;;;;;54.80;19.50;;;;;;;;;;5116089;28;20427;-71